Time;durP1;ratioP1;P1;durP2;ratioP2;P2;SDS_P1;SDS_P2;PMS_P1;PMS_P2;Temp;Humidity;BMP_temperature;BMP_pressure;BME280_temperature;BME280_humidity;BME280_pressure;Samples;Min_cycle;Max_cycle;Signal;HPM_P1;HPM_P2
2021/04/14 00:00:03;;;;;;;5.97;5.47;;;;;;;-2.12;93.78;96595.19;5057888;28;20518;-68
2021/04/14 00:02:31;;;;;;;5.17;4.67;;;;;;;-2.41;93.30;96598.53;5060384;28;20921;-69
2021/04/14 00:04:58;;;;;;;7.53;6.93;;;;;;;-2.48;93.73;96592.00;5053676;28;21054;-69
2021/04/14 00:07:26;;;;;;;5.43;5.03;;;;;;;-2.66;93.75;96592.06;5059210;28;20477;-70
2021/04/14 00:09:52;;;;;;;7.17;6.57;;;;;;;-2.87;93.86;96590.59;5056966;28;20473;-69
2021/04/14 00:12:20;;;;;;;10.47;7.17;;;;;;;-2.91;94.48;96583.94;5063118;28;20563;-69
2021/04/14 00:14:47;;;;;;;5.60;5.10;;;;;;;-2.82;94.77;96588.63;5063944;28;20493;-70
2021/04/14 00:17:13;;;;;;;5.63;5.23;;;;;;;-2.76;94.99;96583.13;5064049;28;20565;-69
2021/04/14 00:19:41;;;;;;;6.70;6.20;;;;;;;-2.67;95.08;96587.81;5062131;28;20457;-70
2021/04/14 00:22:08;;;;;;;5.60;5.10;;;;;;;-2.67;94.90;96582.66;5057975;28;20468;-70
2021/04/14 00:24:37;;;;;;;4.83;4.43;;;;;;;-2.69;95.06;96584.47;5061014;28;21146;-70
2021/04/14 00:27:04;;;;;;;6.10;5.60;;;;;;;-2.88;94.69;96579.44;5057523;28;20541;-69
2021/04/14 00:29:31;;;;;;;6.00;5.43;;;;;;;-3.12;94.38;96574.69;5055570;28;20537;-69
2021/04/14 00:31:57;;;;;;;4.90;4.50;;;;;;;-3.06;95.03;96580.38;5062705;28;20469;-70
2021/04/14 00:34:25;;;;;;;6.43;5.87;;;;;;;-2.99;95.00;96575.75;5048310;28;20492;-70
2021/04/14 00:36:52;;;;;;;6.03;5.53;;;;;;;-3.06;94.70;96579.56;5054146;28;20491;-70
2021/04/14 00:39:22;;;;;;;6.03;5.40;;;;;;;-3.07;94.30;96578.72;5046079;28;20482;-69
2021/04/14 00:41:51;;;;;;;6.73;5.67;;;;;;;-3.09;94.79;96577.13;5049653;28;20493;-70
2021/04/14 00:44:18;;;;;;;6.07;5.47;;;;;;;-3.20;94.74;96577.66;5055668;28;20545;-70
2021/04/14 00:46:45;;;;;;;6.90;6.23;;;;;;;-3.18;95.00;96574.09;5058997;28;20552;-70
2021/04/14 00:49:13;;;;;;;6.57;6.07;;;;;;;-3.15;95.63;96565.38;5060575;28;20474;-70
2021/04/14 00:51:40;;;;;;;6.43;5.73;;;;;;;-3.09;95.71;96574.56;5048326;28;20473;-70
2021/04/14 00:54:09;;;;;;;7.57;5.87;;;;;;;-3.07;95.80;96577.88;5047449;28;20970;-70
2021/04/14 00:56:36;;;;;;;6.27;5.03;;;;;;;-3.04;96.18;96573.38;5051573;28;20518;-70
2021/04/14 00:59:04;;;;;;;8.17;7.37;;;;;;;-2.97;95.70;96566.16;5057691;28;20984;-69
2021/04/14 01:01:31;;;;;;;6.97;6.33;;;;;;;-2.95;95.83;96561.75;5053468;28;21270;-70
2021/04/14 01:03:58;;;;;;;7.13;6.53;;;;;;;-3.16;96.16;96568.84;5059278;28;20553;-70
2021/04/14 01:06:27;;;;;;;9.47;7.40;;;;;;;-3.23;95.60;96557.16;5064871;28;20465;-70
2021/04/14 01:08:55;;;;;;;7.37;6.67;;;;;;;-3.16;95.93;96564.53;5062367;28;20477;-70
2021/04/14 01:11:24;;;;;;;6.77;6.13;;;;;;;-3.11;95.89;96566.84;5060286;28;20568;-69
2021/04/14 01:13:51;;;;;;;6.40;5.77;;;;;;;-3.09;95.40;96556.47;5047554;28;20473;-70
2021/04/14 01:16:19;;;;;;;6.87;6.27;;;;;;;-3.08;95.76;96560.72;5063536;28;20507;-69
2021/04/14 01:18:46;;;;;;;6.63;6.03;;;;;;;-3.07;95.38;96557.22;5059391;28;20462;-69
2021/04/14 01:21:19;;;;;;;4.80;4.40;;;;;;;-3.02;95.79;96550.06;5046184;28;20477;-69
2021/04/14 01:23:46;;;;;;;4.90;3.80;;;;;;;-3.01;95.43;96559.50;5060485;28;20910;-70
2021/04/14 01:26:13;;;;;;;5.27;4.50;;;;;;;-3.04;95.48;96557.06;5054319;28;20565;-69
2021/04/14 01:28:44;;;;;;;4.33;3.93;;;;;;;-3.06;95.24;96548.56;5066793;28;20460;-70
2021/04/14 01:31:13;;;;;;;3.37;3.07;;;;;;;-3.04;94.87;96552.72;5064173;28;20468;-70
2021/04/14 01:33:40;;;;;;;4.30;4.00;;;;;;;-3.10;95.05;96550.50;5058012;28;20544;-70
2021/04/14 01:36:09;;;;;;;3.77;3.50;;;;;;;-3.15;94.79;96550.72;5058025;28;21023;-70
2021/04/14 01:38:38;;;;;;;4.03;3.67;;;;;;;-3.24;94.93;96555.50;5059666;28;20976;-69
2021/04/14 01:41:07;;;;;;;5.27;3.97;;;;;;;-3.26;94.60;96553.00;5063382;28;20495;-69
2021/04/14 01:43:34;;;;;;;5.10;4.60;;;;;;;-3.25;94.67;96559.00;5059176;28;20506;-69
2021/04/14 01:46:01;;;;;;;4.70;3.80;;;;;;;-3.27;94.84;96560.84;5060750;28;20555;-69
2021/04/14 01:48:28;;;;;;;4.10;3.80;;;;;;;-3.28;95.30;96554.84;5060329;28;21074;-70
2021/04/14 01:50:55;;;;;;;5.13;4.73;;;;;;;-3.25;95.42;96549.50;5064085;28;20489;-70
2021/04/14 01:53:22;;;;;;;7.40;4.77;;;;;;;-3.24;95.62;96555.50;5065106;28;20877;-70
2021/04/14 01:55:51;;;;;;;4.90;3.57;;;;;;;-3.21;95.63;96543.25;5052438;28;20548;-70
2021/04/14 01:58:19;;;;;;;3.43;3.20;;;;;;;-3.21;95.00;96545.84;5059682;28;20461;-69
2021/04/14 02:00:51;;;;;;;4.90;4.40;;;;;;;-3.26;95.53;96547.84;5059971;28;20465;-69
2021/04/14 02:03:19;;;;;;;6.43;5.83;;;;;;;-3.63;95.51;96546.28;5064537;28;20465;-70
2021/04/14 02:05:46;;;;;;;5.70;5.20;;;;;;;-3.47;96.87;96554.94;5054279;28;20464;-70
2021/04/14 02:08:13;;;;;;;5.73;5.20;;;;;;;-3.40;96.82;96558.00;5064024;28;20540;-69
2021/04/14 02:10:40;;;;;;;6.90;6.40;;;;;;;-3.22;96.92;96544.19;5063193;28;20837;-68
2021/04/14 02:13:13;;;;;;;6.87;5.67;;;;;;;-3.16;96.57;96543.88;5061375;28;20547;-70
2021/04/14 02:15:40;;;;;;;4.80;4.40;;;;;;;-3.08;96.51;96545.25;5058660;28;20473;-69
2021/04/14 02:18:07;;;;;;;5.37;4.97;;;;;;;-3.10;96.17;96552.25;5062924;28;20530;-69
2021/04/14 02:20:34;;;;;;;5.03;4.63;;;;;;;-3.09;96.31;96548.75;5054431;28;20461;-69
2021/04/14 02:23:10;;;;;;;6.77;6.17;;;;;;;-3.07;96.19;96557.22;5054424;28;20555;-70
2021/04/14 02:25:37;;;;;;;6.13;5.00;;;;;;;-3.08;96.31;96545.25;5053519;28;20541;-70
2021/04/14 02:28:04;;;;;;;4.97;4.53;;;;;;;-3.10;96.30;96549.66;5055782;28;20462;-70
2021/04/14 02:30:32;;;;;;;6.80;6.23;;;;;;;-2.73;95.81;96541.66;5060637;28;21140;-70
2021/04/14 02:32:59;;;;;;;7.13;6.47;;;;;;;-2.80;95.81;96537.72;5045226;28;20474;-70
2021/04/14 02:35:26;;;;;;;8.93;5.20;;;;;;;-2.88;95.17;96537.28;5057382;28;20526;-70
2021/04/14 02:37:54;;;;;;;5.30;4.80;;;;;;;-2.82;95.64;96531.81;5049854;28;20495;-70
2021/04/14 02:40:22;;;;;;;5.97;5.47;;;;;;;-2.76;95.45;96531.47;5044922;28;21037;-70
2021/04/14 02:42:49;;;;;;;6.63;5.27;;;;;;;-2.84;95.15;96532.78;5054897;28;20473;-70
2021/04/14 02:45:18;;;;;;;7.00;6.27;;;;;;;-2.89;95.26;96535.63;5057484;28;20481;-70
2021/04/14 02:47:46;;;;;;;5.20;4.80;;;;;;;-3.00;95.53;96527.59;5051189;28;20545;-69
2021/04/14 02:50:13;;;;;;;4.97;4.27;;;;;;;-3.12;95.27;96523.06;5054240;28;20865;-68
2021/04/14 02:52:40;;;;;;;6.73;6.00;;;;;;;-3.37;94.40;96529.50;5060811;28;20476;-70
2021/04/14 02:55:08;;;;;;;5.13;4.53;;;;;;;-3.52;94.53;96528.50;5058614;28;20549;-70
2021/04/14 02:57:35;;;;;;;6.30;5.70;;;;;;;-3.59;94.06;96528.88;5059586;28;20461;-69
2021/04/14 03:00:03;;;;;;;5.43;4.93;;;;;;;-3.77;94.57;96530.63;5065436;28;21022;-70
2021/04/14 03:02:30;;;;;;;7.17;5.80;;;;;;;-3.73;95.11;96525.25;5062089;28;20465;-70
2021/04/14 03:04:59;;;;;;;5.73;5.33;;;;;;;-3.71;94.51;96520.03;5049076;28;20480;-70
2021/04/14 03:07:25;;;;;;;5.43;4.90;;;;;;;-3.79;95.54;96517.81;5059601;28;20505;-69
2021/04/14 03:09:52;;;;;;;5.77;5.37;;;;;;;-3.83;94.98;96516.31;5049969;28;20560;-70
2021/04/14 03:12:19;;;;;;;6.33;5.47;;;;;;;-3.79;95.06;96520.41;5056451;28;20536;-68
2021/04/14 03:14:46;;;;;;;7.70;4.60;;;;;;;-3.79;95.72;96520.41;5056532;28;20522;-69
2021/04/14 03:17:13;;;;;;;6.23;4.03;;;;;;;-3.82;96.68;96522.31;5062561;28;20892;-69
2021/04/14 03:19:40;;;;;;;4.77;4.37;;;;;;;-3.78;96.02;96521.22;5054262;28;20473;-70
2021/04/14 03:22:07;;;;;;;6.87;6.03;;;;;;;-3.78;95.83;96513.50;5062266;28;20890;-69
2021/04/14 03:24:34;;;;;;;6.37;5.77;;;;;;;-3.69;95.72;96513.03;5062183;28;21008;-69
2021/04/14 03:27:01;;;;;;;6.03;5.43;;;;;;;-3.62;96.79;96513.56;5061250;28;20477;-69
2021/04/14 03:29:28;;;;;;;6.07;5.53;;;;;;;-3.61;96.30;96512.66;5063937;28;20472;-69
2021/04/14 03:31:55;;;;;;;6.53;5.10;;;;;;;-3.69;97.00;96507.03;5055001;28;20472;-69
2021/04/14 03:34:22;;;;;;;6.77;4.50;;;;;;;-3.67;96.29;96508.63;5056736;28;20465;-68
2021/04/14 03:36:49;;;;;;;4.50;4.10;;;;;;;-3.66;96.47;96505.13;5057873;28;20468;-69
2021/04/14 03:39:16;;;;;;;5.37;4.90;;;;;;;-3.67;96.57;96500.88;5055387;28;20522;-69
2021/04/14 03:41:43;;;;;;;5.93;5.33;;;;;;;-3.60;96.90;96499.69;5054372;28;20493;-69
2021/04/14 03:44:10;;;;;;;6.33;5.80;;;;;;;-3.54;97.42;96501.13;5044812;28;20524;-70
2021/04/14 03:46:37;;;;;;;6.90;6.10;;;;;;;-3.47;96.68;96502.50;5058657;28;20512;-69
2021/04/14 03:49:05;;;;;;;7.17;5.30;;;;;;;-3.40;96.96;96506.41;5067383;28;20522;-68
2021/04/14 03:51:32;;;;;;;5.73;4.37;;;;;;;-3.41;95.98;96506.50;5058674;28;20663;-69
2021/04/14 03:53:59;;;;;;;6.37;4.60;;;;;;;-3.37;96.10;96508.84;5063511;28;20472;-69
2021/04/14 03:56:26;;;;;;;5.90;5.40;;;;;;;-3.30;95.99;96505.03;5065551;28;20464;-69
2021/04/14 03:58:55;;;;;;;6.50;5.90;;;;;;;-3.31;96.14;96503.34;5062686;28;20465;-69
2021/04/14 04:01:26;;;;;;;6.27;5.47;;;;;;;-3.34;96.67;96498.38;5060874;28;20926;-70
2021/04/14 04:03:54;;;;;;;6.57;5.97;;;;;;;-3.26;96.70;96497.97;5061116;28;20993;-69
2021/04/14 04:06:21;;;;;;;8.53;6.00;;;;;;;-3.25;96.34;96503.06;5062798;28;20527;-69
2021/04/14 04:08:49;;;;;;;6.00;5.50;;;;;;;-3.27;96.61;96512.63;5060638;28;20476;-69
2021/04/14 04:11:17;;;;;;;4.90;4.57;;;;;;;-3.27;96.18;96504.88;5059282;28;20488;-70
2021/04/14 04:13:45;;;;;;;5.00;4.70;;;;;;;-3.30;96.01;96505.03;5057166;28;20482;-67
2021/04/14 04:16:12;;;;;;;5.20;4.73;;;;;;;-3.48;96.15;96511.13;5051256;28;20528;-66
2021/04/14 04:18:39;;;;;;;5.10;4.70;;;;;;;-3.52;95.80;96512.19;5047492;28;20550;-66
2021/04/14 04:21:07;;;;;;;4.40;4.00;;;;;;;-3.51;96.91;96508.69;5051035;28;20476;-67
2021/04/14 04:23:34;;;;;;;4.17;3.87;;;;;;;-3.51;96.72;96512.13;5060259;28;20985;-67
2021/04/14 04:26:01;;;;;;;4.80;4.50;;;;;;;-3.52;96.41;96507.88;5059865;28;20557;-66
2021/04/14 04:28:28;;;;;;;4.47;4.07;;;;;;;-3.53;96.80;96507.94;5061776;28;20892;-67
2021/04/14 04:30:56;;;;;;;4.20;3.87;;;;;;;-3.54;96.23;96507.13;5058737;28;20564;-67
2021/04/14 04:33:23;;;;;;;6.33;3.73;;;;;;;-3.54;96.64;96511.44;5049452;28;20572;-67
2021/04/14 04:35:50;;;;;;;6.10;4.30;;;;;;;-3.56;96.45;96497.81;5064691;28;20748;-66
2021/04/14 04:38:17;;;;;;;4.10;3.70;;;;;;;-3.52;96.16;96514.78;5058474;28;20480;-67
2021/04/14 04:40:44;;;;;;;4.20;3.80;;;;;;;-3.59;96.01;96519.41;5053052;28;20637;-67
2021/04/14 04:43:12;;;;;;;3.97;3.67;;;;;;;-3.56;96.35;96514.09;5065446;28;20468;-67
2021/04/14 04:45:39;;;;;;;4.43;4.03;;;;;;;-3.52;96.32;96512.19;5058896;28;20510;-67
2021/04/14 04:48:08;;;;;;;4.50;4.20;;;;;;;-3.49;96.31;96507.72;5057850;28;20465;-68
2021/04/14 04:50:36;;;;;;;3.80;3.50;;;;;;;-3.43;95.84;96509.16;5056480;28;20476;-67
2021/04/14 04:53:07;;;;;;;3.07;2.67;;;;;;;-3.39;95.85;96514.97;5062195;28;20914;-68
2021/04/14 04:55:34;;;;;;;3.20;2.90;;;;;;;-3.50;95.39;96518.09;5057562;28;20468;-67
2021/04/14 04:58:05;;;;;;;4.87;4.00;;;;;;;-3.45;95.53;96516.16;5054021;28;20742;-68
2021/04/14 05:00:33;;;;;;;3.53;3.23;;;;;;;-3.38;95.64;96517.50;5063400;28;20657;-67
2021/04/14 05:03:00;;;;;;;4.00;3.47;;;;;;;-3.34;95.25;96516.44;5065873;28;20529;-67
2021/04/14 05:05:30;;;;;;;3.27;2.93;;;;;;;-3.26;95.05;96516.88;5060911;28;20877;-67
2021/04/14 05:07:57;;;;;;;5.83;5.33;;;;;;;-3.15;94.90;96513.72;5049981;28;20531;-67
2021/04/14 05:10:24;;;;;;;5.27;4.83;;;;;;;-2.96;94.57;96518.78;5048891;28;20516;-66
2021/04/14 05:12:52;;;;;;;3.60;3.33;;;;;;;-2.80;93.83;96514.47;5050068;28;20572;-66
2021/04/14 05:15:22;;;;;;;5.07;4.33;;;;;;;-2.63;92.31;96511.00;5062624;28;20480;-67
2021/04/14 05:17:50;;;;;;;12.43;10.00;;;;;;;-2.52;91.40;96513.00;5061226;28;20475;-67
2021/04/14 05:20:20;;;;;;;11.53;9.47;;;;;;;-2.53;91.02;96511.34;5053258;28;20889;-67
2021/04/14 05:22:48;;;;;;;11.70;9.70;;;;;;;-2.50;90.74;96516.31;5046262;28;21033;-66
2021/04/14 05:25:18;;;;;;;20.43;7.27;;;;;;;-2.45;90.99;96524.66;5064269;28;20526;-67
2021/04/14 05:27:45;;;;;;;5.60;5.10;;;;;;;-2.44;91.61;96514.25;5056402;28;20540;-67
2021/04/14 05:30:15;;;;;;;5.40;4.43;;;;;;;-2.36;91.15;96516.41;5059372;28;20547;-67
2021/04/14 05:32:42;;;;;;;3.80;3.50;;;;;;;-2.28;91.64;96516.84;5052002;28;20484;-67
2021/04/14 05:35:10;;;;;;;4.53;4.13;;;;;;;-2.24;91.03;96518.31;5061608;28;21057;-67
2021/04/14 05:37:37;;;;;;;4.80;4.40;;;;;;;-2.28;91.76;96527.19;5063070;28;20515;-67
2021/04/14 05:40:07;;;;;;;7.83;7.13;;;;;;;-2.29;91.51;96520.31;5057615;28;20977;-67
2021/04/14 05:42:38;;;;;;;6.73;6.10;;;;;;;-2.29;92.32;96520.31;5058710;28;21279;-67
2021/04/14 05:45:07;;;;;;;7.23;6.50;;;;;;;-2.24;93.14;96528.66;5062835;28;20504;-67
2021/04/14 05:47:35;;;;;;;6.63;6.00;;;;;;;-2.12;93.46;96529.72;5057006;28;20473;-66
2021/04/14 05:50:03;;;;;;;9.40;8.63;;;;;;;-1.99;93.13;96520.38;5057493;28;20484;-67
2021/04/14 05:52:30;;;;;;;8.10;7.40;;;;;;;-1.86;92.96;96528.28;5060200;28;20488;-67
2021/04/14 05:54:57;;;;;;;8.30;7.57;;;;;;;-1.78;93.71;96528.69;5060295;28;20493;-65
2021/04/14 05:57:24;;;;;;;9.30;7.87;;;;;;;-1.70;93.21;96523.91;5055306;28;20891;-67
2021/04/14 05:59:51;;;;;;;10.27;8.37;;;;;;;-1.67;93.42;96523.72;5055318;28;20580;-67
2021/04/14 06:02:18;;;;;;;11.07;9.97;;;;;;;-1.46;93.24;96526.84;5063932;28;20501;-67
2021/04/14 06:04:45;;;;;;;10.37;9.37;;;;;;;-1.39;92.58;96522.13;5061189;28;20469;-67
2021/04/14 06:07:12;;;;;;;11.13;7.73;;;;;;;-1.26;92.46;96523.06;5058936;28;20507;-66
2021/04/14 06:09:39;;;;;;;7.83;6.83;;;;;;;-1.22;92.78;96529.72;5058270;28;20553;-66
2021/04/14 06:12:07;;;;;;;8.17;7.47;;;;;;;-1.14;92.65;96522.34;5064013;28;20474;-67
2021/04/14 06:14:34;;;;;;;9.93;7.17;;;;;;;-1.01;92.13;96522.44;5063489;28;20875;-67
2021/04/14 06:17:01;;;;;;;7.00;6.40;;;;;;;-0.88;91.49;96529.38;5063592;28;20496;-66
2021/04/14 06:19:28;;;;;;;7.37;6.73;;;;;;;-0.78;90.38;96521.06;5063292;28;20457;-65
2021/04/14 06:21:55;;;;;;;6.90;6.33;;;;;;;-0.68;90.04;96524.75;5053034;28;20465;-67
2021/04/14 06:24:24;;;;;;;6.77;6.10;;;;;;;-0.59;89.38;96529.38;5059330;28;21205;-67
2021/04/14 06:26:53;;;;;;;6.73;5.83;;;;;;;-0.47;89.00;96518.22;5060241;28;20522;-67
2021/04/14 06:29:20;;;;;;;5.60;5.17;;;;;;;-0.36;88.25;96526.19;5045696;28;20859;-67
2021/04/14 06:31:47;;;;;;;7.50;5.77;;;;;;;-0.21;87.84;96523.56;5057189;28;20565;-67
2021/04/14 06:34:18;;;;;;;5.80;5.30;;;;;;;-0.11;85.95;96516.84;5059603;28;20526;-67
2021/04/14 06:36:49;;;;;;;4.93;4.43;;;;;;;0.03;84.65;96522.00;5060104;28;20229;-67
2021/04/14 06:39:17;;;;;;;6.93;4.80;;;;;;;0.11;84.23;96524.94;5064329;28;20224;-67
2021/04/14 06:42:06;;;;;;;3.80;3.60;;;;;;;0.23;83.53;96529.34;5055512;28;20487;-66
2021/04/14 06:44:48;;;;;;;4.37;4.03;;;;;;;0.38;83.48;96529.28;5060590;28;20256;-67
2021/04/14 06:47:21;;;;;;;4.77;4.37;;;;;;;0.39;83.00;96529.19;5046483;28;20224;-67
2021/04/14 06:49:55;;;;;;;3.20;3.00;;;;;;;0.61;82.71;96528.59;5044038;28;20222;-67
2021/04/14 06:52:27;;;;;;;2.47;2.27;;;;;;;0.79;82.36;96529.97;5056905;28;22398;-67
2021/04/14 06:54:59;;;;;;;2.97;2.73;;;;;;;0.99;81.21;96527.78;5062428;28;20254;-67
2021/04/14 06:57:29;;;;;;;3.47;3.17;;;;;;;1.01;81.15;96526.78;5053194;28;20267;-67
2021/04/14 07:00:00;;;;;;;2.87;2.67;;;;;;;1.25;80.31;96528.63;5052105;28;20222;-67
2021/04/14 07:02:34;;;;;;;3.07;2.87;;;;;;;1.48;80.05;96521.84;5055056;28;20318;-66
2021/04/14 07:05:04;;;;;;;2.90;2.70;;;;;;;1.65;78.81;96518.91;5061304;28;20280;-66
2021/04/14 07:07:34;;;;;;;3.33;3.03;;;;;;;1.83;76.03;96520.19;5056585;28;20305;-66
2021/04/14 07:10:08;;;;;;;7.33;3.90;;;;;;;2.04;75.14;96523.03;5063907;28;20685;-67
2021/04/14 07:12:35;;;;;;;4.73;3.73;;;;;;;2.19;74.86;96521.06;5062975;28;20280;-67
2021/04/14 07:15:04;;;;;;;7.40;4.30;;;;;;;2.31;74.19;96520.22;5063083;28;20226;-67
2021/04/14 07:17:46;;;;;;;4.37;3.97;;;;;;;2.39;74.18;96523.09;5054127;28;20237;-67
2021/04/14 07:20:23;;;;;;;4.23;3.57;;;;;;;2.53;73.50;96517.66;5063219;28;20222;-68
2021/04/14 07:23:08;;;;;;;3.57;3.27;;;;;;;2.69;73.29;96519.16;5063027;28;20232;-67
2021/04/14 07:25:42;;;;;;;5.70;3.60;;;;;;;2.87;73.17;96522.16;5055482;28;20312;-67
2021/04/14 07:28:24;;;;;;;3.30;2.17;;;;;;;3.02;70.53;96515.78;5054509;28;20223;-67
2021/04/14 07:30:58;;;;;;;2.40;2.20;;;;;;;3.16;68.61;96518.16;5063363;28;20233;-66
2021/04/14 07:33:40;;;;;;;3.60;3.40;;;;;;;3.34;69.84;96521.16;5054047;28;20739;-68
2021/04/14 07:36:16;;;;;;;2.87;2.67;;;;;;;3.43;68.29;96518.66;5053502;28;20583;-67
2021/04/14 07:38:50;;;;;;;4.40;1.97;;;;;;;3.57;69.68;96511.56;5055985;28;20283;-68
2021/04/14 07:41:29;;;;;;;5.43;2.57;;;;;;;3.77;69.69;96510.81;5044124;28;20650;-67
2021/04/14 07:44:03;;;;;;;2.23;1.80;;;;;;;3.86;68.86;96517.91;5053904;28;20314;-67
2021/04/14 07:46:34;;;;;;;3.07;1.80;;;;;;;3.92;67.36;96519.19;5052781;28;20299;-67
2021/04/14 07:49:09;;;;;;;1.97;1.87;;;;;;;4.05;69.00;96506.00;5044063;28;20218;-68
2021/04/14 07:51:35;;;;;;;1.83;1.70;;;;;;;4.11;68.23;96511.53;5044956;28;20256;-68
2021/04/14 07:54:07;;;;;;;1.70;1.60;;;;;;;4.24;67.87;96511.41;5049290;28;20321;-68
2021/04/14 07:56:43;;;;;;;2.60;1.80;;;;;;;4.40;67.55;96516.22;5061762;28;20295;-66
2021/04/14 07:59:14;;;;;;;2.57;2.17;;;;;;;4.55;67.43;96512.34;5054485;28;20310;-68
2021/04/14 08:01:53;;;;;;;3.33;2.63;;;;;;;4.68;67.16;96518.25;5063236;28;20762;-68
2021/04/14 08:04:26;;;;;;;2.53;2.37;;;;;;;4.79;67.53;96507.72;5049853;28;20282;-67
2021/04/14 08:07:05;;;;;;;30.57;3.23;;;;;;;4.93;68.04;96521.41;5055256;28;20882;-67
2021/04/14 08:09:31;;;;;;;2.67;2.50;;;;;;;5.05;66.67;96513.38;5045540;28;20788;-67
2021/04/14 08:12:05;;;;;;;5.23;2.67;;;;;;;5.08;66.30;96517.53;5054952;28;20236;-67
2021/04/14 08:14:35;;;;;;;2.37;2.00;;;;;;;5.16;65.72;96509.88;5062486;28;20228;-68
2021/04/14 08:17:13;;;;;;;3.57;2.53;;;;;;;5.27;65.08;96507.16;5056026;28;20233;-68
2021/04/14 08:19:42;;;;;;;2.47;2.23;;;;;;;5.36;65.46;96509.00;5046471;28;20304;-68
2021/04/14 08:22:23;;;;;;;1.80;1.70;;;;;;;5.62;64.95;96508.56;5047045;28;20315;-67
2021/04/14 08:24:53;;;;;;;2.70;1.93;;;;;;;5.78;63.55;96503.66;5045687;28;20230;-67
2021/04/14 08:27:34;;;;;;;2.13;2.03;;;;;;;5.84;64.41;96510.97;5056490;28;20322;-67
2021/04/14 08:30:09;;;;;;;4.53;2.40;;;;;;;6.16;64.21;96504.72;5063092;28;20319;-67
2021/04/14 08:32:40;;;;;;;1.60;1.50;;;;;;;6.35;63.20;96502.13;5051411;28;20242;-68
2021/04/14 08:35:15;;;;;;;2.57;2.40;;;;;;;6.53;62.04;96503.09;5058288;28;20285;-68
2021/04/14 08:37:42;;;;;;;2.63;2.43;;;;;;;6.73;61.26;96498.66;5052848;28;20226;-67
2021/04/14 08:40:19;;;;;;;2.43;2.23;;;;;;;6.41;61.32;96498.16;5045531;28;20246;-68
2021/04/14 08:42:46;;;;;;;2.83;2.70;;;;;;;6.69;63.01;96491.25;5051864;28;20250;-68
2021/04/14 08:45:22;;;;;;;2.97;2.77;;;;;;;6.99;61.09;96488.41;5064306;28;20307;-68
2021/04/14 08:47:54;;;;;;;1.77;1.67;;;;;;;7.29;59.26;96489.16;5061906;28;20226;-67
2021/04/14 08:50:28;;;;;;;2.43;2.20;;;;;;;7.55;59.62;96484.09;5050756;28;20243;-68
2021/04/14 08:52:59;;;;;;;3.53;2.17;;;;;;;7.29;57.04;96489.16;5046870;28;20253;-68
2021/04/14 08:55:27;;;;;;;3.83;2.37;;;;;;;7.25;58.13;96479.94;5060170;28;20217;-68
2021/04/14 08:57:56;;;;;;;4.87;2.47;;;;;;;7.47;58.21;96465.63;5050873;28;20707;-67
2021/04/14 09:00:25;;;;;;;3.23;2.50;;;;;;;8.01;57.73;96470.03;5061170;28;20214;-68
2021/04/14 09:02:59;;;;;;;2.07;1.93;;;;;;;8.40;56.93;96467.16;5065379;28;20254;-69
2021/04/14 09:05:29;;;;;;;4.03;2.67;;;;;;;8.59;54.00;96459.09;5061853;28;20217;-68
2021/04/14 09:07:58;;;;;;;1.67;1.57;;;;;;;8.75;55.64;96453.97;5050023;28;20736;-68
2021/04/14 09:10:50;;;;;;;1.50;1.40;;;;;;;9.17;53.74;96458.56;5060243;28;20305;-68
2021/04/14 09:13:17;;;;;;;1.57;1.47;;;;;;;9.08;50.67;96451.59;5046991;28;20251;-68
2021/04/14 09:15:54;;;;;;;3.63;2.43;;;;;;;9.21;50.96;96449.34;5058318;28;20245;-69
2021/04/14 09:18:30;;;;;;;2.20;2.00;;;;;;;8.79;53.27;96444.00;5063663;28;20922;-68
2021/04/14 09:21:11;;;;;;;2.57;1.57;;;;;;;8.57;52.27;96447.91;5060896;28;20233;-67
2021/04/14 09:23:40;;;;;;;1.90;1.67;;;;;;;8.31;51.94;96445.19;5046195;28;20317;-69
2021/04/14 09:26:22;;;;;;;3.50;1.53;;;;;;;7.80;53.59;96451.91;5060609;28;20324;-68
2021/04/14 09:28:51;;;;;;;2.30;1.20;;;;;;;7.97;51.72;96445.84;5057619;28;20218;-68
2021/04/14 09:31:39;;;;;;;2.23;2.07;;;;;;;8.50;51.30;96438.97;5054421;28;20312;-68
2021/04/14 09:34:31;;;;;;;2.67;2.07;;;;;;;9.35;52.74;96440.06;5050590;28;20223;-68
2021/04/14 09:37:03;;;;;;;1.43;1.30;;;;;;;10.12;51.44;96436.38;5041453;28;20711;-68
2021/04/14 09:39:34;;;;;;;3.90;2.47;;;;;;;11.07;49.04;96429.66;5053579;28;20301;-69
2021/04/14 09:42:01;;;;;;;4.27;2.00;;;;;;;11.11;48.30;96425.69;5063585;28;20222;-68
2021/04/14 09:44:36;;;;;;;3.93;2.17;;;;;;;11.62;48.80;96417.44;5064563;28;20228;-68
2021/04/14 09:47:17;;;;;;;4.10;2.30;;;;;;;11.26;47.98;96422.34;5055248;28;20308;-68
2021/04/14 09:49:47;;;;;;;1.53;1.37;;;;;;;10.93;43.21;96419.78;5059210;28;20218;-68
2021/04/14 09:52:26;;;;;;;1.97;1.47;;;;;;;9.96;44.38;96418.69;5057085;28;20230;-68
2021/04/14 09:54:58;;;;;;;4.07;1.37;;;;;;;9.78;43.87;96425.88;5060955;28;20327;-67
2021/04/14 09:57:32;;;;;;;0.70;0.70;;;;;;;10.17;43.64;96409.53;5053574;28;20919;-68
2021/04/14 10:00:00;;;;;;;2.27;0.87;;;;;;;10.39;43.08;96419.44;5053000;28;20658;-67
2021/04/14 10:02:29;;;;;;;1.80;1.70;;;;;;;10.46;43.78;96409.91;5062593;28;20230;-68
2021/04/14 10:05:00;;;;;;;0.70;0.60;;;;;;;10.02;41.96;96421.69;5061718;28;20230;-67
2021/04/14 10:07:31;;;;;;;1.37;1.23;;;;;;;10.38;43.13;96412.53;5054488;28;20227;-68
2021/04/14 10:10:07;;;;;;;0.90;0.90;;;;;;;11.17;41.64;96399.59;5062176;28;20765;-68
2021/04/14 10:12:34;;;;;;;2.30;1.20;;;;;;;11.44;41.13;96396.53;5060710;28;20324;-68
2021/04/14 10:15:04;;;;;;;1.60;1.37;;;;;;;11.87;42.81;96399.66;5062544;28;20326;-68
2021/04/14 10:17:33;;;;;;;1.20;1.10;;;;;;;12.33;43.14;96397.06;5061525;28;20668;-68
2021/04/14 10:20:15;;;;;;;2.40;2.20;;;;;;;13.07;39.10;96401.56;5056998;28;20220;-68
2021/04/14 10:22:46;;;;;;;1.63;0.57;;;;;;;13.77;39.49;96394.97;5053822;28;20237;-69
2021/04/14 10:25:20;;;;;;;1.27;1.00;;;;;;;13.93;43.63;96396.59;5058552;28;20586;-69
2021/04/14 10:27:48;;;;;;;3.40;0.93;;;;;;;12.52;44.72;96401.88;5047615;28;20231;-69
2021/04/14 10:30:20;;;;;;;3.80;1.50;;;;;;;12.71;44.71;96398.75;5046505;28;20219;-68
2021/04/14 10:32:48;;;;;;;1.97;1.80;;;;;;;12.03;45.73;96399.56;5050707;28;20246;-68
2021/04/14 10:35:20;;;;;;;2.53;0.70;;;;;;;11.93;46.94;96396.31;5061646;28;20283;-68
2021/04/14 10:37:49;;;;;;;2.40;1.00;;;;;;;11.68;47.07;96395.59;5050739;28;20230;-68
2021/04/14 10:40:20;;;;;;;1.93;1.37;;;;;;;10.38;49.40;96396.69;5044582;28;20253;-68
2021/04/14 10:42:48;;;;;;;1.50;0.97;;;;;;;9.79;49.00;96400.38;5045835;28;20722;-69
2021/04/14 10:45:17;;;;;;;2.07;0.90;;;;;;;8.24;53.83;96397.66;5059496;28;20222;-67
2021/04/14 10:47:46;;;;;;;8.20;1.53;;;;;;;6.75;56.65;96398.84;5053149;28;20257;-68
2021/04/14 10:50:19;;;;;;;2.07;1.87;;;;;;;7.62;56.50;96390.63;5050904;28;20277;-68
2021/04/14 10:52:52;;;;;;;1.63;1.53;;;;;;;8.02;54.57;96395.47;5040790;28;20289;-68
2021/04/14 10:55:22;;;;;;;1.93;1.33;;;;;;;8.19;53.48;96389.38;5059841;28;20242;-68
2021/04/14 10:57:57;;;;;;;6.77;2.57;;;;;;;7.95;53.05;96386.50;5054190;28;20231;-69
2021/04/14 11:00:30;;;;;;;1.20;1.07;;;;;;;7.63;53.93;96387.03;5050948;28;20309;-68
2021/04/14 11:03:01;;;;;;;1.43;1.33;;;;;;;7.40;54.17;96390.03;5045930;28;20229;-67
2021/04/14 11:05:29;;;;;;;1.47;1.37;;;;;;;7.06;53.58;96387.16;5048764;28;20233;-68
2021/04/14 11:07:58;;;;;;;1.90;1.30;;;;;;;7.32;54.20;96376.00;5058451;28;20215;-67
2021/04/14 11:10:28;;;;;;;1.60;1.50;;;;;;;7.89;54.48;96371.38;5044366;28;20229;-68
2021/04/14 11:12:56;;;;;;;1.27;0.90;;;;;;;8.48;53.00;96369.91;5055958;28;20619;-67
2021/04/14 11:15:25;;;;;;;1.23;0.63;;;;;;;9.15;52.28;96364.91;5057461;28;20686;-68
2021/04/14 11:17:57;;;;;;;1.00;0.87;;;;;;;9.86;49.59;96364.47;5049195;28;20740;-68
2021/04/14 11:20:26;;;;;;;1.17;1.07;;;;;;;9.79;48.06;96364.31;5044011;28;20244;-67
2021/04/14 11:22:56;;;;;;;2.47;0.87;;;;;;;10.31;47.70;96356.13;5055416;28;20320;-69
2021/04/14 11:25:27;;;;;;;3.00;2.23;;;;;;;10.52;49.35;96355.66;5055195;28;20329;-67
2021/04/14 11:27:59;;;;;;;1.47;1.30;;;;;;;10.32;50.11;96355.13;5055558;28;20302;-68
2021/04/14 11:30:26;;;;;;;1.53;0.93;;;;;;;10.45;50.32;96359.94;5058904;28;20246;-68
2021/04/14 11:32:54;;;;;;;0.83;0.83;;;;;;;10.15;51.13;96349.03;5053323;28;20257;-67
2021/04/14 11:35:33;;;;;;;0.97;0.97;;;;;;;10.32;49.82;96347.22;5061385;28;20303;-68
2021/04/14 11:38:00;;;;;;;2.23;1.43;;;;;;;9.77;52.04;96349.63;5044145;28;20287;-68
2021/04/14 11:40:42;;;;;;;1.67;1.10;;;;;;;10.28;52.34;96351.19;5056574;28;20242;-68
2021/04/14 11:43:33;;;;;;;1.40;1.30;;;;;;;9.11;46.68;96356.47;5062339;28;20218;-68
2021/04/14 11:46:02;;;;;;;5.40;1.90;;;;;;;8.92;46.33;96354.91;5060016;28;20301;-68
2021/04/14 11:48:32;;;;;;;1.03;0.93;;;;;;;8.32;47.88;96346.09;5052237;28;20302;-67